sensor_id;sensor_type;location;lat;lon;timestamp;P1;durP1;ratioP1;P2;durP2;ratioP2
9218;SDS011;4644;48.858;9.184;2024-03-02T00:00:26;3.20;;;2.67;;
9218;SDS011;4644;48.858;9.184;2024-03-02T00:02:53;3.83;;;3.13;;
9218;SDS011;4644;48.858;9.184;2024-03-02T00:05:20;3.23;;;2.93;;
9218;SDS011;4644;48.858;9.184;2024-03-02T00:07:53;3.13;;;2.27;;
9218;SDS011;4644;48.858;9.184;2024-03-02T00:10:22;4.47;;;2.70;;
9218;SDS011;4644;48.858;9.184;2024-03-02T00:12:54;4.40;;;3.00;;
9218;SDS011;4644;48.858;9.184;2024-03-02T00:15:36;4.73;;;2.97;;
9218;SDS011;4644;48.858;9.184;2024-03-02T00:18:07;3.63;;;3.13;;
9218;SDS011;4644;48.858;9.184;2024-03-02T00:20:36;3.30;;;3.00;;
9218;SDS011;4644;48.858;9.184;2024-03-02T00:23:05;3.27;;;2.60;;
9218;SDS011;4644;48.858;9.184;2024-03-02T00:25:36;5.87;;;3.50;;
9218;SDS011;4644;48.858;9.184;2024-03-02T00:28:05;3.67;;;3.07;;
9218;SDS011;4644;48.858;9.184;2024-03-02T00:33:22;4.33;;;2.83;;
9218;SDS011;4644;48.858;9.184;2024-03-02T00:35:50;5.23;;;2.83;;
9218;SDS011;4644;48.858;9.184;2024-03-02T00:38:18;4.90;;;3.20;;
9218;SDS011;4644;48.858;9.184;2024-03-02T00:40:45;4.83;;;3.03;;
9218;SDS011;4644;48.858;9.184;2024-03-02T00:46:06;5.37;;;2.93;;
9218;SDS011;4644;48.858;9.184;2024-03-02T00:48:33;3.17;;;2.87;;
9218;SDS011;4644;48.858;9.184;2024-03-02T00:51:01;4.10;;;2.57;;
9218;SDS011;4644;48.858;9.184;2024-03-02T00:53:30;3.37;;;3.03;;
9218;SDS011;4644;48.858;9.184;2024-03-02T00:55:58;4.43;;;3.00;;
9218;SDS011;4644;48.858;9.184;2024-03-02T00:58:25;3.00;;;2.70;;
9218;SDS011;4644;48.858;9.184;2024-03-02T01:00:52;5.87;;;3.07;;
9218;SDS011;4644;48.858;9.184;2024-03-02T01:03:20;3.47;;;2.97;;
9218;SDS011;4644;48.858;9.184;2024-03-02T01:05:47;4.53;;;3.10;;
9218;SDS011;4644;48.858;9.184;2024-03-02T01:08:14;4.30;;;2.70;;
9218;SDS011;4644;48.858;9.184;2024-03-02T01:10:42;4.13;;;2.07;;
9218;SDS011;4644;48.858;9.184;2024-03-02T01:13:09;4.07;;;2.97;;
9218;SDS011;4644;48.858;9.184;2024-03-02T01:15:36;3.90;;;3.20;;
9218;SDS011;4644;48.858;9.184;2024-03-02T01:18:03;3.80;;;3.03;;
9218;SDS011;4644;48.858;9.184;2024-03-02T01:20:30;4.10;;;2.60;;
9218;SDS011;4644;48.858;9.184;2024-03-02T01:22:57;4.03;;;2.90;;
9218;SDS011;4644;48.858;9.184;2024-03-02T01:25:24;3.70;;;2.90;;
9218;SDS011;4644;48.858;9.184;2024-03-02T01:27:52;5.07;;;2.90;;
9218;SDS011;4644;48.858;9.184;2024-03-02T01:30:19;3.50;;;2.67;;
9218;SDS011;4644;48.858;9.184;2024-03-02T01:32:46;3.13;;;2.50;;
9218;SDS011;4644;48.858;9.184;2024-03-02T01:35:13;2.50;;;2.30;;
9218;SDS011;4644;48.858;9.184;2024-03-02T01:37:41;3.17;;;2.87;;
9218;SDS011;4644;48.858;9.184;2024-03-02T01:40:08;3.33;;;2.33;;
9218;SDS011;4644;48.858;9.184;2024-03-02T01:42:36;3.60;;;3.20;;
9218;SDS011;4644;48.858;9.184;2024-03-02T01:48:06;4.53;;;2.60;;
9218;SDS011;4644;48.858;9.184;2024-03-02T01:50:34;5.30;;;2.83;;
9218;SDS011;4644;48.858;9.184;2024-03-02T01:53:01;3.97;;;3.07;;
9218;SDS011;4644;48.858;9.184;2024-03-02T01:55:28;3.33;;;2.37;;
9218;SDS011;4644;48.858;9.184;2024-03-02T01:57:55;4.57;;;3.60;;
9218;SDS011;4644;48.858;9.184;2024-03-02T02:00:22;3.10;;;2.80;;
9218;SDS011;4644;48.858;9.184;2024-03-02T02:02:51;4.17;;;2.73;;
9218;SDS011;4644;48.858;9.184;2024-03-02T02:05:19;4.67;;;2.73;;
9218;SDS011;4644;48.858;9.184;2024-03-02T02:07:46;3.97;;;2.70;;
9218;SDS011;4644;48.858;9.184;2024-03-02T02:10:13;5.57;;;3.53;;
9218;SDS011;4644;48.858;9.184;2024-03-02T02:12:40;3.13;;;2.77;;
9218;SDS011;4644;48.858;9.184;2024-03-02T02:15:21;4.33;;;2.70;;
9218;SDS011;4644;48.858;9.184;2024-03-02T02:17:49;3.00;;;2.40;;
9218;SDS011;4644;48.858;9.184;2024-03-02T02:20:16;3.80;;;2.50;;
9218;SDS011;4644;48.858;9.184;2024-03-02T02:25:27;3.27;;;2.50;;
9218;SDS011;4644;48.858;9.184;2024-03-02T02:27:55;4.83;;;2.50;;
9218;SDS011;4644;48.858;9.184;2024-03-02T02:30:23;3.53;;;2.47;;
9218;SDS011;4644;48.858;9.184;2024-03-02T02:32:51;4.23;;;2.90;;
9218;SDS011;4644;48.858;9.184;2024-03-02T02:35:18;7.60;;;3.43;;
9218;SDS011;4644;48.858;9.184;2024-03-02T02:37:45;2.70;;;2.50;;
9218;SDS011;4644;48.858;9.184;2024-03-02T02:40:14;3.10;;;2.63;;
9218;SDS011;4644;48.858;9.184;2024-03-02T02:42:43;3.20;;;2.30;;
9218;SDS011;4644;48.858;9.184;2024-03-02T02:45:10;4.87;;;2.73;;
9218;SDS011;4644;48.858;9.184;2024-03-02T02:47:38;4.67;;;3.37;;
9218;SDS011;4644;48.858;9.184;2024-03-02T02:50:06;3.83;;;3.23;;
9218;SDS011;4644;48.858;9.184;2024-03-02T02:52:34;3.20;;;2.77;;
9218;SDS011;4644;48.858;9.184;2024-03-02T02:55:02;3.33;;;2.43;;
9218;SDS011;4644;48.858;9.184;2024-03-02T02:57:31;3.10;;;2.50;;
9218;SDS011;4644;48.858;9.184;2024-03-02T03:00:01;3.40;;;3.00;;
9218;SDS011;4644;48.858;9.184;2024-03-02T03:02:35;4.70;;;3.30;;
9218;SDS011;4644;48.858;9.184;2024-03-02T03:05:07;3.50;;;2.67;;
9218;SDS011;4644;48.858;9.184;2024-03-02T03:07:34;3.87;;;3.00;;
9218;SDS011;4644;48.858;9.184;2024-03-02T03:10:01;2.93;;;2.63;;
9218;SDS011;4644;48.858;9.184;2024-03-02T03:12:29;2.73;;;2.47;;
9218;SDS011;4644;48.858;9.184;2024-03-02T03:14:57;7.30;;;2.80;;
9218;SDS011;4644;48.858;9.184;2024-03-02T03:17:24;5.70;;;2.83;;
9218;SDS011;4644;48.858;9.184;2024-03-02T03:19:52;2.33;;;2.23;;
9218;SDS011;4644;48.858;9.184;2024-03-02T03:22:19;3.60;;;2.40;;
9218;SDS011;4644;48.858;9.184;2024-03-02T03:24:46;3.90;;;2.50;;
9218;SDS011;4644;48.858;9.184;2024-03-02T03:27:13;2.77;;;2.57;;
9218;SDS011;4644;48.858;9.184;2024-03-02T03:29:40;3.17;;;2.70;;
9218;SDS011;4644;48.858;9.184;2024-03-02T03:32:08;2.30;;;2.20;;
9218;SDS011;4644;48.858;9.184;2024-03-02T03:34:35;3.50;;;2.90;;
9218;SDS011;4644;48.858;9.184;2024-03-02T03:37:02;3.17;;;2.50;;
9218;SDS011;4644;48.858;9.184;2024-03-02T03:39:29;4.67;;;2.90;;
9218;SDS011;4644;48.858;9.184;2024-03-02T03:41:55;2.63;;;2.27;;
9218;SDS011;4644;48.858;9.184;2024-03-02T03:44:22;5.07;;;3.10;;
9218;SDS011;4644;48.858;9.184;2024-03-02T03:46:49;2.17;;;1.97;;
9218;SDS011;4644;48.858;9.184;2024-03-02T03:49:17;5.63;;;3.03;;
9218;SDS011;4644;48.858;9.184;2024-03-02T03:51:44;2.60;;;2.37;;
9218;SDS011;4644;48.858;9.184;2024-03-02T03:54:11;4.07;;;2.87;;
9218;SDS011;4644;48.858;9.184;2024-03-02T03:56:38;4.27;;;2.80;;
9218;SDS011;4644;48.858;9.184;2024-03-02T03:59:04;3.53;;;2.53;;
9218;SDS011;4644;48.858;9.184;2024-03-02T04:01:31;3.67;;;2.63;;
9218;SDS011;4644;48.858;9.184;2024-03-02T04:03:58;4.57;;;2.10;;
9218;SDS011;4644;48.858;9.184;2024-03-02T04:06:28;4.27;;;2.67;;
9218;SDS011;4644;48.858;9.184;2024-03-02T04:08:55;4.03;;;2.33;;
9218;SDS011;4644;48.858;9.184;2024-03-02T04:11:22;4.90;;;2.87;;
9218;SDS011;4644;48.858;9.184;2024-03-02T04:13:48;3.70;;;2.53;;
9218;SDS011;4644;48.858;9.184;2024-03-02T04:16:15;2.67;;;2.43;;
9218;SDS011;4644;48.858;9.184;2024-03-02T04:18:42;4.07;;;2.63;;
9218;SDS011;4644;48.858;9.184;2024-03-02T04:21:09;3.17;;;2.23;;
9218;SDS011;4644;48.858;9.184;2024-03-02T04:23:37;2.53;;;2.33;;
9218;SDS011;4644;48.858;9.184;2024-03-02T04:26:04;4.50;;;2.67;;
9218;SDS011;4644;48.858;9.184;2024-03-02T04:28:31;4.93;;;2.73;;
9218;SDS011;4644;48.858;9.184;2024-03-02T04:30:58;4.23;;;2.60;;
9218;SDS011;4644;48.858;9.184;2024-03-02T04:33:25;6.10;;;3.43;;
9218;SDS011;4644;48.858;9.184;2024-03-02T04:35:51;2.77;;;2.43;;
9218;SDS011;4644;48.858;9.184;2024-03-02T04:38:18;4.30;;;2.63;;
9218;SDS011;4644;48.858;9.184;2024-03-02T04:40:46;5.23;;;3.00;;
9218;SDS011;4644;48.858;9.184;2024-03-02T04:43:14;5.37;;;3.27;;
9218;SDS011;4644;48.858;9.184;2024-03-02T04:45:41;3.63;;;2.80;;
9218;SDS011;4644;48.858;9.184;2024-03-02T04:48:08;3.83;;;2.73;;
9218;SDS011;4644;48.858;9.184;2024-03-02T04:50:35;2.50;;;2.17;;
9218;SDS011;4644;48.858;9.184;2024-03-02T04:53:02;4.23;;;3.03;;
9218;SDS011;4644;48.858;9.184;2024-03-02T04:55:29;2.80;;;1.80;;
9218;SDS011;4644;48.858;9.184;2024-03-02T04:58:23;4.20;;;3.23;;
9218;SDS011;4644;48.858;9.184;2024-03-02T05:00:50;4.70;;;3.10;;
9218;SDS011;4644;48.858;9.184;2024-03-02T05:03:16;2.93;;;2.53;;
9218;SDS011;4644;48.858;9.184;2024-03-02T05:05:43;3.83;;;2.83;;
9218;SDS011;4644;48.858;9.184;2024-03-02T05:08:10;5.33;;;3.13;;
9218;SDS011;4644;48.858;9.184;2024-03-02T05:10:37;3.20;;;2.63;;
9218;SDS011;4644;48.858;9.184;2024-03-02T05:13:04;4.00;;;2.90;;
9218;SDS011;4644;48.858;9.184;2024-03-02T05:15:32;3.67;;;2.93;;
9218;SDS011;4644;48.858;9.184;2024-03-02T05:17:59;5.43;;;2.87;;
9218;SDS011;4644;48.858;9.184;2024-03-02T05:20:27;3.93;;;3.50;;
9218;SDS011;4644;48.858;9.184;2024-03-02T05:22:54;4.60;;;3.43;;
9218;SDS011;4644;48.858;9.184;2024-03-02T05:25:21;4.63;;;2.90;;
9218;SDS011;4644;48.858;9.184;2024-03-02T05:27:48;5.43;;;3.43;;
9218;SDS011;4644;48.858;9.184;2024-03-02T05:30:15;5.00;;;2.53;;
9218;SDS011;4644;48.858;9.184;2024-03-02T05:32:43;2.93;;;2.40;;
9218;SDS011;4644;48.858;9.184;2024-03-02T05:35:10;3.47;;;2.67;;
9218;SDS011;4644;48.858;9.184;2024-03-02T05:37:37;4.77;;;2.60;;
9218;SDS011;4644;48.858;9.184;2024-03-02T05:40:07;5.63;;;3.47;;
9218;SDS011;4644;48.858;9.184;2024-03-02T05:42:36;4.13;;;2.67;;
9218;SDS011;4644;48.858;9.184;2024-03-02T05:45:03;3.27;;;2.57;;
9218;SDS011;4644;48.858;9.184;2024-03-02T05:47:31;4.47;;;3.53;;
9218;SDS011;4644;48.858;9.184;2024-03-02T05:49:59;3.83;;;2.83;;
9218;SDS011;4644;48.858;9.184;2024-03-02T05:52:26;3.40;;;2.30;;
9218;SDS011;4644;48.858;9.184;2024-03-02T05:54:53;4.20;;;3.43;;
9218;SDS011;4644;48.858;9.184;2024-03-02T05:57:20;3.67;;;2.83;;
9218;SDS011;4644;48.858;9.184;2024-03-02T06:00:01;3.70;;;2.80;;
9218;SDS011;4644;48.858;9.184;2024-03-02T06:02:33;3.20;;;2.97;;
9218;SDS011;4644;48.858;9.184;2024-03-02T06:05:01;3.37;;;2.80;;
9218;SDS011;4644;48.858;9.184;2024-03-02T06:07:29;3.73;;;2.73;;
9218;SDS011;4644;48.858;9.184;2024-03-02T06:09:56;4.37;;;3.27;;
9218;SDS011;4644;48.858;9.184;2024-03-02T06:12:23;7.10;;;4.00;;
9218;SDS011;4644;48.858;9.184;2024-03-02T06:14:50;6.00;;;3.23;;
9218;SDS011;4644;48.858;9.184;2024-03-02T06:17:17;3.63;;;2.87;;
9218;SDS011;4644;48.858;9.184;2024-03-02T06:19:43;3.83;;;2.70;;
9218;SDS011;4644;48.858;9.184;2024-03-02T06:22:12;5.63;;;2.97;;
9218;SDS011;4644;48.858;9.184;2024-03-02T06:24:39;3.97;;;3.10;;
9218;SDS011;4644;48.858;9.184;2024-03-02T06:27:06;3.50;;;2.50;;
9218;SDS011;4644;48.858;9.184;2024-03-02T06:29:33;7.30;;;2.97;;
9218;SDS011;4644;48.858;9.184;2024-03-02T06:32:00;4.87;;;3.67;;
9218;SDS011;4644;48.858;9.184;2024-03-02T06:34:26;4.80;;;3.60;;
9218;SDS011;4644;48.858;9.184;2024-03-02T06:36:53;5.67;;;3.07;;
9218;SDS011;4644;48.858;9.184;2024-03-02T06:39:22;3.97;;;3.17;;
9218;SDS011;4644;48.858;9.184;2024-03-02T06:41:49;5.50;;;3.47;;
9218;SDS011;4644;48.858;9.184;2024-03-02T06:44:15;3.60;;;3.07;;
9218;SDS011;4644;48.858;9.184;2024-03-02T06:46:42;3.43;;;2.73;;
9218;SDS011;4644;48.858;9.184;2024-03-02T06:49:09;4.17;;;2.97;;
9218;SDS011;4644;48.858;9.184;2024-03-02T06:51:36;6.13;;;3.30;;
9218;SDS011;4644;48.858;9.184;2024-03-02T06:54:03;3.73;;;3.43;;
9218;SDS011;4644;48.858;9.184;2024-03-02T06:56:31;8.63;;;3.93;;
9218;SDS011;4644;48.858;9.184;2024-03-02T06:58:59;3.97;;;3.53;;
9218;SDS011;4644;48.858;9.184;2024-03-02T07:01:25;3.93;;;2.97;;
9218;SDS011;4644;48.858;9.184;2024-03-02T07:03:53;3.23;;;2.80;;
9218;SDS011;4644;48.858;9.184;2024-03-02T07:06:20;4.03;;;3.20;;
9218;SDS011;4644;48.858;9.184;2024-03-02T07:08:46;4.63;;;2.87;;
9218;SDS011;4644;48.858;9.184;2024-03-02T07:11:13;3.23;;;2.93;;
9218;SDS011;4644;48.858;9.184;2024-03-02T07:13:41;3.20;;;2.90;;
9218;SDS011;4644;48.858;9.184;2024-03-02T07:16:08;4.73;;;2.90;;
9218;SDS011;4644;48.858;9.184;2024-03-02T07:18:55;3.70;;;2.13;;
9218;SDS011;4644;48.858;9.184;2024-03-02T07:21:21;4.93;;;3.33;;
9218;SDS011;4644;48.858;9.184;2024-03-02T07:23:48;4.73;;;3.10;;
9218;SDS011;4644;48.858;9.184;2024-03-02T07:26:16;2.67;;;2.47;;
9218;SDS011;4644;48.858;9.184;2024-03-02T07:28:45;7.67;;;4.53;;
9218;SDS011;4644;48.858;9.184;2024-03-02T07:31:13;5.37;;;3.10;;
9218;SDS011;4644;48.858;9.184;2024-03-02T07:33:40;3.40;;;3.10;;
9218;SDS011;4644;48.858;9.184;2024-03-02T07:36:07;5.03;;;3.33;;
9218;SDS011;4644;48.858;9.184;2024-03-02T07:38:34;4.43;;;3.33;;
9218;SDS011;4644;48.858;9.184;2024-03-02T07:41:01;4.50;;;3.20;;
9218;SDS011;4644;48.858;9.184;2024-03-02T07:43:29;4.37;;;2.70;;
9218;SDS011;4644;48.858;9.184;2024-03-02T07:45:58;2.63;;;2.43;;
9218;SDS011;4644;48.858;9.184;2024-03-02T07:48:25;5.27;;;3.70;;
9218;SDS011;4644;48.858;9.184;2024-03-02T07:50:52;4.70;;;2.67;;
9218;SDS011;4644;48.858;9.184;2024-03-02T07:53:18;2.47;;;2.20;;
9218;SDS011;4644;48.858;9.184;2024-03-02T07:55:45;4.20;;;3.13;;
9218;SDS011;4644;48.858;9.184;2024-03-02T07:58:12;4.50;;;2.60;;
9218;SDS011;4644;48.858;9.184;2024-03-02T08:00:39;2.93;;;2.73;;
9218;SDS011;4644;48.858;9.184;2024-03-02T08:03:07;4.03;;;2.40;;
9218;SDS011;4644;48.858;9.184;2024-03-02T08:05:36;4.50;;;2.93;;
9218;SDS011;4644;48.858;9.184;2024-03-02T08:08:04;4.37;;;2.53;;
9218;SDS011;4644;48.858;9.184;2024-03-02T08:10:31;5.07;;;2.70;;
9218;SDS011;4644;48.858;9.184;2024-03-02T08:12:58;4.13;;;2.23;;
9218;SDS011;4644;48.858;9.184;2024-03-02T08:15:25;3.20;;;2.63;;
9218;SDS011;4644;48.858;9.184;2024-03-02T08:17:52;2.90;;;2.60;;
9218;SDS011;4644;48.858;9.184;2024-03-02T08:20:20;3.17;;;2.80;;
9218;SDS011;4644;48.858;9.184;2024-03-02T08:22:47;2.97;;;2.67;;
9218;SDS011;4644;48.858;9.184;2024-03-02T08:25:14;3.17;;;2.30;;
9218;SDS011;4644;48.858;9.184;2024-03-02T08:27:41;4.27;;;3.00;;
9218;SDS011;4644;48.858;9.184;2024-03-02T08:30:09;3.87;;;2.70;;
9218;SDS011;4644;48.858;9.184;2024-03-02T08:32:37;3.20;;;2.43;;
9218;SDS011;4644;48.858;9.184;2024-03-02T08:35:06;2.17;;;1.97;;
9218;SDS011;4644;48.858;9.184;2024-03-02T08:37:34;2.73;;;2.37;;
9218;SDS011;4644;48.858;9.184;2024-03-02T08:40:03;4.93;;;2.77;;
9218;SDS011;4644;48.858;9.184;2024-03-02T08:42:32;3.50;;;2.23;;
9218;SDS011;4644;48.858;9.184;2024-03-02T08:44:59;2.07;;;1.83;;
9218;SDS011;4644;48.858;9.184;2024-03-02T08:47:27;2.60;;;2.37;;
9218;SDS011;4644;48.858;9.184;2024-03-02T08:49:53;3.93;;;2.53;;
9218;SDS011;4644;48.858;9.184;2024-03-02T08:52:21;3.17;;;2.10;;
9218;SDS011;4644;48.858;9.184;2024-03-02T08:54:49;2.87;;;2.37;;
9218;SDS011;4644;48.858;9.184;2024-03-02T08:57:16;2.33;;;2.13;;
9218;SDS011;4644;48.858;9.184;2024-03-02T08:59:43;2.33;;;1.90;;
9218;SDS011;4644;48.858;9.184;2024-03-02T09:02:10;2.37;;;1.80;;
9218;SDS011;4644;48.858;9.184;2024-03-02T09:04:40;3.10;;;1.87;;
9218;SDS011;4644;48.858;9.184;2024-03-02T09:07:06;2.40;;;2.20;;
9218;SDS011;4644;48.858;9.184;2024-03-02T09:09:33;2.67;;;2.30;;
9218;SDS011;4644;48.858;9.184;2024-03-02T09:12:02;2.30;;;1.87;;
9218;SDS011;4644;48.858;9.184;2024-03-02T09:14:29;2.53;;;1.80;;
9218;SDS011;4644;48.858;9.184;2024-03-02T09:16:56;2.33;;;1.93;;
9218;SDS011;4644;48.858;9.184;2024-03-02T09:19:22;2.70;;;1.77;;
9218;SDS011;4644;48.858;9.184;2024-03-02T09:21:49;3.77;;;1.70;;
9218;SDS011;4644;48.858;9.184;2024-03-02T09:24:16;2.73;;;1.80;;
9218;SDS011;4644;48.858;9.184;2024-03-02T09:26:43;2.40;;;2.20;;
9218;SDS011;4644;48.858;9.184;2024-03-02T09:29:11;2.80;;;1.90;;
9218;SDS011;4644;48.858;9.184;2024-03-02T09:31:39;2.10;;;1.90;;
9218;SDS011;4644;48.858;9.184;2024-03-02T09:34:07;2.27;;;1.67;;
9218;SDS011;4644;48.858;9.184;2024-03-02T09:36:35;2.27;;;2.07;;
9218;SDS011;4644;48.858;9.184;2024-03-02T09:39:01;2.17;;;1.93;;
9218;SDS011;4644;48.858;9.184;2024-03-02T09:41:29;2.53;;;2.00;;
9218;SDS011;4644;48.858;9.184;2024-03-02T09:43:56;2.83;;;1.80;;
9218;SDS011;4644;48.858;9.184;2024-03-02T09:46:25;2.00;;;1.80;;
9218;SDS011;4644;48.858;9.184;2024-03-02T09:48:52;2.00;;;1.90;;
9218;SDS011;4644;48.858;9.184;2024-03-02T09:51:21;1.77;;;1.67;;
9218;SDS011;4644;48.858;9.184;2024-03-02T09:53:49;1.50;;;1.40;;
9218;SDS011;4644;48.858;9.184;2024-03-02T09:56:16;1.70;;;1.60;;
9218;SDS011;4644;48.858;9.184;2024-03-02T09:58:44;1.97;;;1.60;;
9218;SDS011;4644;48.858;9.184;2024-03-02T10:01:11;2.37;;;1.63;;
9218;SDS011;4644;48.858;9.184;2024-03-02T10:03:39;1.77;;;1.63;;
9218;SDS011;4644;48.858;9.184;2024-03-02T10:06:19;2.47;;;1.70;;
9218;SDS011;4644;48.858;9.184;2024-03-02T10:08:46;1.90;;;1.80;;
9218;SDS011;4644;48.858;9.184;2024-03-02T10:11:25;2.13;;;1.80;;
9218;SDS011;4644;48.858;9.184;2024-03-02T10:14:03;1.70;;;1.60;;
9218;SDS011;4644;48.858;9.184;2024-03-02T10:16:33;1.90;;;1.63;;
9218;SDS011;4644;48.858;9.184;2024-03-02T10:19:16;1.50;;;1.40;;
9218;SDS011;4644;48.858;9.184;2024-03-02T10:21:43;2.23;;;1.47;;
9218;SDS011;4644;48.858;9.184;2024-03-02T10:24:11;1.40;;;1.27;;
9218;SDS011;4644;48.858;9.184;2024-03-02T10:26:38;1.70;;;1.60;;
9218;SDS011;4644;48.858;9.184;2024-03-02T10:29:06;5.03;;;3.27;;
9218;SDS011;4644;48.858;9.184;2024-03-02T10:31:35;1.67;;;1.57;;
9218;SDS011;4644;48.858;9.184;2024-03-02T10:34:05;3.10;;;1.50;;
9218;SDS011;4644;48.858;9.184;2024-03-02T10:36:34;1.10;;;1.00;;
9218;SDS011;4644;48.858;9.184;2024-03-02T10:39:03;1.47;;;1.37;;
9218;SDS011;4644;48.858;9.184;2024-03-02T10:41:32;1.80;;;1.70;;
9218;SDS011;4644;48.858;9.184;2024-03-02T10:44:01;1.47;;;1.37;;
9218;SDS011;4644;48.858;9.184;2024-03-02T10:46:30;1.00;;;1.00;;
9218;SDS011;4644;48.858;9.184;2024-03-02T10:48:58;2.67;;;1.40;;
9218;SDS011;4644;48.858;9.184;2024-03-02T10:51:26;1.30;;;1.30;;
9218;SDS011;4644;48.858;9.184;2024-03-02T10:53:59;1.30;;;1.20;;
9218;SDS011;4644;48.858;9.184;2024-03-02T10:56:27;1.53;;;1.43;;
9218;SDS011;4644;48.858;9.184;2024-03-02T10:58:59;1.40;;;1.30;;
9218;SDS011;4644;48.858;9.184;2024-03-02T11:01:29;1.97;;;1.27;;
9218;SDS011;4644;48.858;9.184;2024-03-02T11:03:59;1.30;;;1.10;;
9218;SDS011;4644;48.858;9.184;2024-03-02T11:06:28;1.10;;;1.10;;
9218;SDS011;4644;48.858;9.184;2024-03-02T11:08:59;1.20;;;1.10;;
9218;SDS011;4644;48.858;9.184;2024-03-02T11:11:32;1.10;;;1.10;;
9218;SDS011;4644;48.858;9.184;2024-03-02T11:14:02;1.77;;;1.13;;
9218;SDS011;4644;48.858;9.184;2024-03-02T11:16:34;1.00;;;1.00;;
9218;SDS011;4644;48.858;9.184;2024-03-02T11:19:04;1.57;;;1.27;;
9218;SDS011;4644;48.858;9.184;2024-03-02T11:21:32;1.10;;;1.00;;
9218;SDS011;4644;48.858;9.184;2024-03-02T11:24:01;0.90;;;0.90;;
9218;SDS011;4644;48.858;9.184;2024-03-02T11:26:58;0.80;;;0.80;;
9218;SDS011;4644;48.858;9.184;2024-03-02T11:32:13;1.17;;;0.90;;
9218;SDS011;4644;48.858;9.184;2024-03-02T11:34:47;1.40;;;1.13;;
9218;SDS011;4644;48.858;9.184;2024-03-02T11:37:15;0.87;;;0.80;;
9218;SDS011;4644;48.858;9.184;2024-03-02T11:39:44;3.20;;;2.43;;
9218;SDS011;4644;48.858;9.184;2024-03-02T11:42:12;1.00;;;1.00;;
9218;SDS011;4644;48.858;9.184;2024-03-02T11:44:41;0.90;;;0.90;;
9218;SDS011;4644;48.858;9.184;2024-03-02T11:47:13;1.10;;;1.00;;
9218;SDS011;4644;48.858;9.184;2024-03-02T11:49:43;1.00;;;0.97;;
9218;SDS011;4644;48.858;9.184;2024-03-02T11:52:12;1.17;;;1.07;;
9218;SDS011;4644;48.858;9.184;2024-03-02T11:54:40;0.80;;;0.80;;
9218;SDS011;4644;48.858;9.184;2024-03-02T11:57:14;0.63;;;0.63;;
9218;SDS011;4644;48.858;9.184;2024-03-02T11:59:42;0.70;;;0.70;;
9218;SDS011;4644;48.858;9.184;2024-03-02T12:02:14;1.00;;;0.90;;
9218;SDS011;4644;48.858;9.184;2024-03-02T12:04:43;0.93;;;0.77;;
9218;SDS011;4644;48.858;9.184;2024-03-02T12:07:10;0.77;;;0.77;;
9218;SDS011;4644;48.858;9.184;2024-03-02T12:09:37;0.50;;;0.50;;
9218;SDS011;4644;48.858;9.184;2024-03-02T12:12:05;0.70;;;0.70;;
9218;SDS011;4644;48.858;9.184;2024-03-02T12:14:34;0.73;;;0.73;;
9218;SDS011;4644;48.858;9.184;2024-03-02T12:17:02;0.57;;;0.57;;
9218;SDS011;4644;48.858;9.184;2024-03-02T12:19:30;0.60;;;0.60;;
9218;SDS011;4644;48.858;9.184;2024-03-02T12:21:59;0.60;;;0.60;;
9218;SDS011;4644;48.858;9.184;2024-03-02T12:24:27;0.70;;;0.70;;
9218;SDS011;4644;48.858;9.184;2024-03-02T12:26:55;0.93;;;0.67;;
9218;SDS011;4644;48.858;9.184;2024-03-02T12:29:22;0.53;;;0.53;;
9218;SDS011;4644;48.858;9.184;2024-03-02T12:31:58;0.50;;;0.50;;
9218;SDS011;4644;48.858;9.184;2024-03-02T12:34:27;0.30;;;0.30;;
9218;SDS011;4644;48.858;9.184;2024-03-02T12:36:55;0.63;;;0.63;;
9218;SDS011;4644;48.858;9.184;2024-03-02T12:39:21;0.40;;;0.40;;
9218;SDS011;4644;48.858;9.184;2024-03-02T12:41:49;0.50;;;0.50;;
9218;SDS011;4644;48.858;9.184;2024-03-02T12:44:17;0.60;;;0.60;;
9218;SDS011;4644;48.858;9.184;2024-03-02T12:46:43;0.30;;;0.30;;
9218;SDS011;4644;48.858;9.184;2024-03-02T12:49:14;0.43;;;0.43;;
9218;SDS011;4644;48.858;9.184;2024-03-02T12:51:42;0.40;;;0.40;;
9218;SDS011;4644;48.858;9.184;2024-03-02T12:54:12;0.40;;;0.40;;
9218;SDS011;4644;48.858;9.184;2024-03-02T12:56:40;0.50;;;0.50;;
9218;SDS011;4644;48.858;9.184;2024-03-02T12:59:16;0.40;;;0.40;;
9218;SDS011;4644;48.858;9.184;2024-03-02T13:01:49;0.30;;;0.30;;
9218;SDS011;4644;48.858;9.184;2024-03-02T13:04:21;0.40;;;0.40;;
9218;SDS011;4644;48.858;9.184;2024-03-02T13:06:48;0.40;;;0.40;;
9218;SDS011;4644;48.858;9.184;2024-03-02T13:09:16;0.50;;;0.50;;
9218;SDS011;4644;48.858;9.184;2024-03-02T13:11:43;0.40;;;0.40;;
9218;SDS011;4644;48.858;9.184;2024-03-02T13:14:10;0.50;;;0.50;;
9218;SDS011;4644;48.858;9.184;2024-03-02T13:16:38;0.50;;;0.50;;
9218;SDS011;4644;48.858;9.184;2024-03-02T13:19:06;0.43;;;0.40;;
9218;SDS011;4644;48.858;9.184;2024-03-02T13:21:35;0.40;;;0.40;;
9218;SDS011;4644;48.858;9.184;2024-03-02T13:24:02;0.47;;;0.47;;
9218;SDS011;4644;48.858;9.184;2024-03-02T13:26:30;0.50;;;0.47;;
9218;SDS011;4644;48.858;9.184;2024-03-02T13:28:57;0.40;;;0.40;;
9218;SDS011;4644;48.858;9.184;2024-03-02T13:31:23;0.47;;;0.47;;
9218;SDS011;4644;48.858;9.184;2024-03-02T13:33:50;0.43;;;0.43;;
9218;SDS011;4644;48.858;9.184;2024-03-02T13:36:17;0.47;;;0.47;;
9218;SDS011;4644;48.858;9.184;2024-03-02T13:38:45;0.40;;;0.40;;
9218;SDS011;4644;48.858;9.184;2024-03-02T13:41:12;0.40;;;0.40;;
9218;SDS011;4644;48.858;9.184;2024-03-02T13:43:39;0.90;;;0.90;;
9218;SDS011;4644;48.858;9.184;2024-03-02T13:46:10;0.40;;;0.40;;
9218;SDS011;4644;48.858;9.184;2024-03-02T13:48:37;0.60;;;0.60;;
9218;SDS011;4644;48.858;9.184;2024-03-02T13:51:04;1.30;;;0.70;;
9218;SDS011;4644;48.858;9.184;2024-03-02T13:53:31;0.50;;;0.50;;
9218;SDS011;4644;48.858;9.184;2024-03-02T13:55:59;0.60;;;0.60;;
9218;SDS011;4644;48.858;9.184;2024-03-02T13:58:26;0.40;;;0.40;;
9218;SDS011;4644;48.858;9.184;2024-03-02T14:00:52;0.50;;;0.50;;
9218;SDS011;4644;48.858;9.184;2024-03-02T14:03:21;0.40;;;0.40;;
9218;SDS011;4644;48.858;9.184;2024-03-02T14:05:48;0.50;;;0.50;;
9218;SDS011;4644;48.858;9.184;2024-03-02T14:08:15;0.50;;;0.50;;
9218;SDS011;4644;48.858;9.184;2024-03-02T14:10:42;0.40;;;0.40;;
9218;SDS011;4644;48.858;9.184;2024-03-02T14:13:11;0.40;;;0.40;;
9218;SDS011;4644;48.858;9.184;2024-03-02T14:15:37;0.50;;;0.50;;
9218;SDS011;4644;48.858;9.184;2024-03-02T14:18:05;0.50;;;0.50;;
9218;SDS011;4644;48.858;9.184;2024-03-02T14:20:32;0.40;;;0.40;;
9218;SDS011;4644;48.858;9.184;2024-03-02T14:22:58;0.50;;;0.50;;
9218;SDS011;4644;48.858;9.184;2024-03-02T14:25:26;0.53;;;0.53;;
9218;SDS011;4644;48.858;9.184;2024-03-02T14:27:55;0.83;;;0.57;;
9218;SDS011;4644;48.858;9.184;2024-03-02T14:30:24;0.43;;;0.43;;
9218;SDS011;4644;48.858;9.184;2024-03-02T14:32:50;0.50;;;0.50;;
9218;SDS011;4644;48.858;9.184;2024-03-02T14:35:17;0.50;;;0.50;;
9218;SDS011;4644;48.858;9.184;2024-03-02T14:37:45;0.60;;;0.60;;
9218;SDS011;4644;48.858;9.184;2024-03-02T14:40:12;0.50;;;0.50;;
9218;SDS011;4644;48.858;9.184;2024-03-02T14:42:39;0.40;;;0.40;;
9218;SDS011;4644;48.858;9.184;2024-03-02T14:45:07;0.50;;;0.50;;
9218;SDS011;4644;48.858;9.184;2024-03-02T14:47:35;0.67;;;0.67;;
9218;SDS011;4644;48.858;9.184;2024-03-02T14:50:02;1.07;;;0.50;;
9218;SDS011;4644;48.858;9.184;2024-03-02T14:52:31;0.50;;;0.50;;
9218;SDS011;4644;48.858;9.184;2024-03-02T14:54:58;0.60;;;0.60;;
9218;SDS011;4644;48.858;9.184;2024-03-02T14:57:25;0.80;;;0.80;;
9218;SDS011;4644;48.858;9.184;2024-03-02T14:59:51;0.50;;;0.50;;
9218;SDS011;4644;48.858;9.184;2024-03-02T15:02:19;0.50;;;0.50;;
9218;SDS011;4644;48.858;9.184;2024-03-02T15:04:47;0.50;;;0.50;;
9218;SDS011;4644;48.858;9.184;2024-03-02T15:07:14;0.60;;;0.60;;
9218;SDS011;4644;48.858;9.184;2024-03-02T15:09:43;0.40;;;0.40;;
9218;SDS011;4644;48.858;9.184;2024-03-02T15:12:10;0.60;;;0.60;;
9218;SDS011;4644;48.858;9.184;2024-03-02T15:14:39;0.60;;;0.60;;
9218;SDS011;4644;48.858;9.184;2024-03-02T15:17:10;0.50;;;0.50;;
9218;SDS011;4644;48.858;9.184;2024-03-02T15:19:40;0.40;;;0.40;;
9218;SDS011;4644;48.858;9.184;2024-03-02T15:22:08;0.40;;;0.40;;
9218;SDS011;4644;48.858;9.184;2024-03-02T15:24:35;0.60;;;0.60;;
9218;SDS011;4644;48.858;9.184;2024-03-02T15:27:02;0.40;;;0.40;;
9218;SDS011;4644;48.858;9.184;2024-03-02T15:29:30;0.50;;;0.50;;
9218;SDS011;4644;48.858;9.184;2024-03-02T15:31:57;0.50;;;0.50;;
9218;SDS011;4644;48.858;9.184;2024-03-02T15:34:24;0.50;;;0.50;;